Time;durP1;ratioP1;P1;durP2;ratioP2;P2;SDS_P1;SDS_P2;PMS_P1;PMS_P2;Temp;Humidity;BMP_temperature;BMP_pressure;BME280_temperature;BME280_humidity;BME280_pressure;Samples;Min_cycle;Max_cycle;Signal;HPM_P1;HPM_P2
2023/09/16 00:01:53;;;;;;;11.13;4.57;;;17.90;99.90;;;;;;7282466;19;20201;-76
2023/09/16 00:04:20;;;;;;;10.63;4.07;;;18.00;99.90;;;;;;7282582;19;20248;-77
2023/09/16 00:06:46;;;;;;;8.83;4.33;;;17.90;99.90;;;;;;7282169;19;20290;-76
2023/09/16 00:09:12;;;;;;;8.50;4.57;;;17.90;99.90;;;;;;7282716;19;20188;-77
2023/09/16 00:11:38;;;;;;;9.07;3.97;;;18.00;99.90;;;;;;7281629;19;20735;-77
2023/09/16 00:14:03;;;;;;;9.37;4.27;;;18.00;99.90;;;;;;7154130;19;2877092;-77
2023/09/16 00:16:29;;;;;;;9.30;4.27;;;17.90;99.90;;;;;;7296064;19;20193;-77
2023/09/16 00:18:56;;;;;;;11.77;4.60;;;17.90;99.90;;;;;;7284161;19;20182;-77
2023/09/16 00:23:52;;;;;;;9.60;4.70;;;17.80;99.90;;;;;;7288682;19;20204;-90
2023/09/16 00:26:30;;;;;;;9.97;4.47;;;17.90;99.90;;;;;;7288884;19;20198;-90
2023/09/16 00:29:06;;;;;;;10.23;4.80;;;17.80;99.90;;;;;;7287308;19;20195;-90
2023/09/16 00:32:00;;;;;;;8.70;5.03;;;17.90;99.90;;;;;;7190656;19;2004329;-90
2023/09/16 00:34:42;;;;;;;9.30;4.43;;;17.80;99.90;;;;;;7293225;19;20204;-90
2023/09/16 00:37:14;;;;;;;8.60;4.50;;;17.90;99.90;;;;;;7188465;19;2004463;-90
2023/09/16 00:39:48;;;;;;;10.87;4.70;;;17.80;99.90;;;;;;7290957;19;20731;-91
2023/09/16 00:42:28;;;;;;;9.70;4.57;;;17.80;99.90;;;;;;7288807;19;20247;-91
2023/09/16 00:45:08;;;;;;;8.80;4.80;;;17.80;99.90;;;;;;7291022;19;20190;-91
2023/09/16 00:47:40;;;;;;;8.50;4.47;;;17.80;99.90;;;;;;7289857;19;20181;-90
2023/09/16 00:50:20;;;;;;;7.67;4.23;;;17.80;99.90;;;;;;7292791;19;20180;-91
2023/09/16 00:52:53;;;;;;;9.73;5.13;;;17.70;99.90;;;;;;7290950;19;20190;-91
2023/09/16 00:55:20;;;;;;;11.00;4.73;;;17.70;99.90;;;;;;7290017;19;20197;-91
2023/09/16 00:58:27;;;;;;;12.27;4.70;;;17.60;99.90;;;;;;7288428;19;20185;-90
2023/09/16 01:01:09;;;;;;;9.40;4.53;;;17.50;99.90;;;;;;7186272;19;2004600;-90
2023/09/16 01:03:36;;;;;;;9.27;5.00;;;17.50;99.90;;;;;;7276708;19;20196;-90
2023/09/16 01:06:06;;;;;;;8.73;4.80;;;17.50;99.90;;;;;;7310323;19;20663;-90
2023/09/16 01:08:34;;;;;;;9.53;5.33;;;17.60;99.90;;;;;;7290315;19;20202;-90
2023/09/16 01:11:04;;;;;;;10.83;4.57;;;17.60;99.90;;;;;;7293318;19;20177;-90
2023/09/16 01:13:34;;;;;;;9.60;4.70;;;17.50;99.90;;;;;;7297726;19;20176;-91
2023/09/16 01:16:27;;;;;;;12.97;4.77;;;17.40;99.90;;;;;;7273064;19;20186;-90
2023/09/16 01:19:00;;;;;;;9.67;4.53;;;17.30;99.90;;;;;;7296414;19;20181;-89
2023/09/16 01:21:35;;;;;;;9.50;4.50;;;17.30;99.90;;;;;;7285280;19;20195;-88
2023/09/16 01:24:17;;;;;;;10.53;4.90;;;17.30;99.90;;;;;;7295554;19;20618;-89
2023/09/16 01:26:44;;;;;;;8.53;4.47;;;17.20;99.90;;;;;;7192112;19;2004582;-89
2023/09/16 01:32:45;;;;;;;9.23;4.93;;;17.20;99.90;;;;;;7193857;19;2004561;-90
2023/09/16 01:35:24;;;;;;;12.10;5.33;;;17.30;99.90;;;;;;7296062;19;20256;-90
2023/09/16 01:37:51;;;;;;;9.70;4.77;;;17.40;99.90;;;;;;7296100;19;20193;-91
2023/09/16 01:40:26;;;;;;;9.70;5.43;;;17.40;99.90;;;;;;7296420;19;20180;-90
2023/09/16 01:46:20;;;;;;;11.23;5.20;;;17.30;99.90;;;;;;7091016;19;2004543;-90
2023/09/16 01:48:48;;;;;;;9.50;4.90;;;17.30;99.90;;;;;;7295696;19;20189;-90
2023/09/16 01:51:14;;;;;;;9.67;5.00;;;17.20;99.90;;;;;;7295867;19;20193;-91
2023/09/16 01:53:42;;;;;;;8.00;4.50;;;17.20;99.90;;;;;;7296440;19;20181;-91
2023/09/16 01:56:19;;;;;;;11.43;5.10;;;17.10;99.90;;;;;;7295199;19;20183;-91
2023/09/16 01:58:51;;;;;;;9.30;4.83;;;17.10;99.90;;;;;;7293711;19;20188;-91
2023/09/16 02:01:17;;;;;;;11.10;5.03;;;17.10;99.90;;;;;;7294006;19;20639;-90
2023/09/16 02:03:43;;;;;;;11.57;5.03;;;17.00;99.90;;;;;;7296116;19;20195;-90
2023/09/16 02:06:12;;;;;;;9.87;4.90;;;17.00;99.90;;;;;;7295161;19;20181;-91
2023/09/16 02:08:39;;;;;;;8.57;4.60;;;17.00;99.90;;;;;;7295908;19;20185;-90
2023/09/16 02:11:07;;;;;;;9.57;5.00;;;17.10;99.90;;;;;;7294571;19;20251;-91
2023/09/16 02:13:38;;;;;;;9.70;4.97;;;17.00;99.90;;;;;;7314322;19;20245;-90
2023/09/16 02:19:37;;;;;;;11.13;5.30;;;17.00;99.90;;;;;;7195207;19;2004467;-91
2023/09/16 02:25:03;;;;;;;10.40;5.27;;;16.80;99.90;;;;;;7292581;19;20221;-89
2023/09/16 02:27:56;;;;;;;9.10;5.13;;;16.80;99.90;;;;;;7291488;19;20205;-90
2023/09/16 02:30:23;;;;;;;9.10;4.57;;;16.80;99.90;;;;;;7194591;19;2004440;-90
2023/09/16 02:32:54;;;;;;;9.00;5.13;;;16.80;99.90;;;;;;7295960;19;20203;-90
2023/09/16 02:35:21;;;;;;;10.07;4.90;;;16.80;99.90;;;;;;7294634;19;20181;-89
2023/09/16 02:37:47;;;;;;;10.23;5.00;;;16.70;99.90;;;;;;7294350;19;20184;-91
2023/09/16 02:40:17;;;;;;;10.57;4.90;;;16.60;99.90;;;;;;7292023;19;20186;-90
2023/09/16 02:42:43;;;;;;;8.93;4.87;;;16.60;99.90;;;;;;7293989;19;20195;-91
2023/09/16 02:45:10;;;;;;;13.57;5.20;;;16.60;99.90;;;;;;7293153;19;20189;-90
2023/09/16 02:47:37;;;;;;;9.30;4.70;;;16.70;99.90;;;;;;7294646;19;20522;-90
2023/09/16 02:50:03;;;;;;;8.80;4.80;;;16.60;99.90;;;;;;7314818;19;20185;-89
2023/09/16 02:52:32;;;;;;;9.77;4.67;;;16.50;99.90;;;;;;7294588;19;20198;-91
2023/09/16 02:54:59;;;;;;;8.43;4.90;;;16.50;99.90;;;;;;7294490;19;20183;-90
2023/09/16 03:00:57;;;;;;;8.07;5.00;;;16.50;99.90;;;;;;7090444;19;2004562;-90
2023/09/16 03:03:31;;;;;;;9.50;4.87;;;16.60;99.90;;;;;;7295480;19;20196;-90
2023/09/16 03:05:57;;;;;;;9.33;4.50;;;16.60;99.90;;;;;;7294676;19;20191;-90
2023/09/16 03:08:33;;;;;;;10.03;4.60;;;16.50;99.90;;;;;;7295700;19;20192;-90
2023/09/16 03:11:03;;;;;;;9.90;4.70;;;16.50;99.90;;;;;;7292137;19;20284;-90
2023/09/16 03:13:31;;;;;;;10.43;4.90;;;16.50;99.90;;;;;;7295451;19;20191;-90
2023/09/16 03:19:28;;;;;;;11.80;5.23;;;16.50;99.90;;;;;;7092893;19;2004534;-90
2023/09/16 03:21:59;;;;;;;7.17;4.37;;;16.60;99.90;;;;;;7293066;19;20208;-90
2023/09/16 03:24:26;;;;;;;10.57;4.80;;;16.60;99.90;;;;;;7292962;19;20226;-90
2023/09/16 03:30:21;;;;;;;8.13;4.90;;;16.60;99.90;;;;;;7088849;19;2004533;-90
2023/09/16 03:33:22;;;;;;;11.03;4.53;;;16.50;99.90;;;;;;7290682;19;20194;-90
2023/09/16 03:35:54;;;;;;;9.93;4.40;;;16.30;99.90;;;;;;7191067;19;2004578;-90
2023/09/16 03:38:23;;;;;;;8.17;4.60;;;16.20;99.90;;;;;;7291522;19;20257;-91
2023/09/16 03:40:50;;;;;;;9.50;4.70;;;16.20;99.90;;;;;;7292408;19;20191;-90
2023/09/16 03:43:21;;;;;;;9.70;5.50;;;16.20;99.90;;;;;;7292735;19;20184;-91
2023/09/16 03:45:50;;;;;;;9.90;4.97;;;16.30;99.90;;;;;;7293825;19;20188;-91
2023/09/16 03:48:17;;;;;;;10.13;4.90;;;16.40;99.90;;;;;;7294346;19;20184;-90
2023/09/16 03:50:46;;;;;;;10.13;5.00;;;16.30;99.90;;;;;;7293984;19;20290;-90
2023/09/16 03:53:13;;;;;;;9.33;5.30;;;16.10;99.90;;;;;;7291051;19;20173;-91
2023/09/16 03:55:41;;;;;;;10.63;4.93;;;16.10;99.90;;;;;;7292149;19;20180;-90
2023/09/16 03:58:17;;;;;;;10.33;4.93;;;16.10;99.90;;;;;;7290311;19;20193;-90
2023/09/16 04:00:47;;;;;;;8.13;4.67;;;16.10;99.90;;;;;;7291623;19;20642;-91
2023/09/16 04:03:13;;;;;;;10.63;5.27;;;16.10;99.90;;;;;;7290675;19;20277;-91
2023/09/16 04:05:40;;;;;;;10.83;5.33;;;16.10;99.90;;;;;;7292177;19;20205;-90
2023/09/16 04:08:11;;;;;;;8.37;5.13;;;16.10;99.90;;;;;;7296383;19;20185;-91
2023/09/16 04:10:40;;;;;;;12.47;5.40;;;16.20;99.90;;;;;;7290821;19;20684;-91
2023/09/16 04:13:15;;;;;;;10.73;5.40;;;16.20;99.90;;;;;;7291744;19;20180;-90
2023/09/16 04:15:46;;;;;;;10.20;5.10;;;16.30;99.90;;;;;;7292583;19;20183;-90
2023/09/16 04:18:12;;;;;;;10.60;5.00;;;16.20;99.90;;;;;;7291737;19;20235;-90
2023/09/16 04:20:57;;;;;;;8.80;4.60;;;16.10;99.90;;;;;;7291574;19;20165;-90
2023/09/16 04:23:28;;;;;;;10.00;5.07;;;16.10;99.90;;;;;;7292075;19;20200;-89
2023/09/16 04:26:00;;;;;;;10.07;5.00;;;16.10;99.90;;;;;;7291382;19;20196;-88
2023/09/16 04:29:13;;;;;;;9.73;4.60;;;16.10;99.90;;;;;;7290744;19;20365;-89
2023/09/16 04:31:42;;;;;;;8.87;4.57;;;16.00;99.90;;;;;;7087132;19;2004554;-89
2023/09/16 04:34:16;;;;;;;7.53;4.63;;;15.80;99.90;;;;;;7290282;19;20544;-89
2023/09/16 04:36:54;;;;;;;10.33;5.13;;;15.90;99.90;;;;;;7291901;19;20192;-89
2023/09/16 04:39:25;;;;;;;10.03;5.17;;;16.00;99.90;;;;;;7288555;19;20620;-89
2023/09/16 04:42:12;;;;;;;13.27;5.40;;;16.10;99.90;;;;;;7182128;19;2004683;-89
2023/09/16 04:44:44;;;;;;;11.17;5.10;;;16.00;99.90;;;;;;7290085;19;20185;-89
2023/09/16 04:47:17;;;;;;;9.67;5.07;;;16.00;99.90;;;;;;7289977;19;20179;-89
2023/09/16 04:49:51;;;;;;;14.03;5.60;;;16.00;99.90;;;;;;7291067;19;20191;-89
2023/09/16 04:52:28;;;;;;;10.00;5.03;;;16.10;99.90;;;;;;7291982;19;21548;-90
2023/09/16 04:58:34;;;;;;;9.60;4.90;;;16.00;99.90;;;;;;7085753;19;2004549;-89
2023/09/16 05:01:12;;;;;;;10.10;5.20;;;16.00;99.90;;;;;;7287318;19;20222;-90
2023/09/16 05:04:15;;;;;;;9.87;5.03;;;16.00;99.90;;;;;;7187603;19;2004566;-90
2023/09/16 05:06:55;;;;;;;8.70;5.00;;;16.00;99.90;;;;;;7186900;19;2004618;-90
2023/09/16 05:09:25;;;;;;;15.57;5.60;;;16.10;99.90;;;;;;7288587;19;20248;-90
2023/09/16 05:12:00;;;;;;;10.37;5.23;;;16.10;99.90;;;;;;7289986;19;20288;-90
2023/09/16 05:14:29;;;;;;;12.40;5.33;;;16.10;99.90;;;;;;7289678;19;20195;-90
2023/09/16 05:17:11;;;;;;;11.67;5.17;;;16.20;99.90;;;;;;7289261;19;20176;-90
2023/09/16 05:19:47;;;;;;;9.87;5.40;;;16.30;99.90;;;;;;7279417;19;20190;-91
2023/09/16 05:22:16;;;;;;;11.33;5.20;;;16.20;99.90;;;;;;7289253;19;20184;-90
2023/09/16 05:24:44;;;;;;;11.97;5.63;;;16.20;99.90;;;;;;7289901;19;20196;-90
2023/09/16 05:27:13;;;;;;;11.33;5.37;;;16.20;99.90;;;;;;7291916;19;20258;-89
2023/09/16 05:29:43;;;;;;;9.90;5.23;;;16.30;99.90;;;;;;7290100;19;20189;-89
2023/09/16 05:32:12;;;;;;;9.33;5.17;;;16.30;99.90;;;;;;7288440;19;20173;-89
2023/09/16 05:38:07;;;;;;;9.67;5.17;;;16.30;99.90;;;;;;7167295;19;2004559;-90
2023/09/16 05:40:37;;;;;;;10.03;5.17;;;16.30;99.90;;;;;;7313236;19;20172;-90
2023/09/16 05:43:14;;;;;;;11.77;5.10;;;16.40;99.90;;;;;;7289580;19;20197;-89
2023/09/16 05:45:49;;;;;;;12.97;5.37;;;16.40;99.90;;;;;;7184389;19;2004461;-89
2023/09/16 05:48:18;;;;;;;9.80;5.30;;;16.50;99.90;;;;;;7290141;19;20185;-89
2023/09/16 05:50:56;;;;;;;9.47;5.53;;;16.50;99.90;;;;;;7290306;19;20172;-89
2023/09/16 05:53:27;;;;;;;8.73;4.80;;;16.70;99.90;;;;;;7290239;19;20246;-90
2023/09/16 05:56:07;;;;;;;9.37;4.87;;;16.70;99.90;;;;;;7289389;19;20681;-90
2023/09/16 05:58:43;;;;;;;9.73;4.57;;;16.80;99.90;;;;;;7274917;19;20549;-90
2023/09/16 06:01:10;;;;;;;11.40;4.93;;;16.70;99.90;;;;;;7293697;19;20201;-89
2023/09/16 06:03:39;;;;;;;10.67;5.50;;;16.70;99.90;;;;;;7293676;19;20178;-90
2023/09/16 06:06:19;;;;;;;8.53;4.70;;;16.80;99.90;;;;;;7307454;19;20180;-90
2023/09/16 06:08:49;;;;;;;11.90;5.23;;;16.80;99.90;;;;;;7293027;19;20188;-89
2023/09/16 06:11:15;;;;;;;8.70;5.03;;;17.00;99.90;;;;;;7292598;19;20196;-90
2023/09/16 06:13:46;;;;;;;9.07;4.63;;;17.20;99.90;;;;;;7295680;19;20263;-90
2023/09/16 06:16:17;;;;;;;10.67;4.90;;;17.40;99.90;;;;;;7295506;19;20185;-89
2023/09/16 06:18:47;;;;;;;11.80;5.17;;;17.40;99.90;;;;;;7295686;19;20725;-89
2023/09/16 06:21:15;;;;;;;7.17;4.40;;;17.60;99.90;;;;;;7294726;19;20662;-89
2023/09/16 06:23:43;;;;;;;10.67;4.70;;;17.70;99.90;;;;;;7296663;19;20193;-90
2023/09/16 06:26:10;;;;;;;10.90;4.93;;;17.90;99.90;;;;;;7295192;19;20263;-89
2023/09/16 06:28:42;;;;;;;10.27;4.67;;;18.20;99.90;;;;;;7296505;19;20634;-89
2023/09/16 06:31:11;;;;;;;11.17;4.60;;;18.40;99.90;;;;;;7296066;19;20778;-89
2023/09/16 06:33:41;;;;;;;8.80;4.43;;;18.50;99.90;;;;;;7293609;19;20309;-90
2023/09/16 06:36:10;;;;;;;11.93;4.37;;;18.50;99.90;;;;;;7295359;19;20204;-90
2023/09/16 06:38:36;;;;;;;10.70;4.50;;;18.70;99.90;;;;;;7298160;19;20177;-90
2023/09/16 06:41:02;;;;;;;9.97;4.57;;;19.00;99.90;;;;;;7317511;19;20173;-90
2023/09/16 06:43:29;;;;;;;10.53;4.40;;;19.40;99.90;;;;;;7295995;19;20241;-90
2023/09/16 06:45:56;;;;;;;9.43;4.03;;;20.30;99.90;;;;;;7293909;19;20181;-90
2023/09/16 06:48:24;;;;;;;8.43;3.80;;;21.40;99.90;;;;;;7294393;19;20175;-90
2023/09/16 06:50:53;;;;;;;9.33;3.93;;;22.20;99.90;;;;;;7295360;19;20192;-90
2023/09/16 06:53:24;;;;;;;8.87;4.00;;;22.90;99.90;;;;;;7294383;19;20185;-90
2023/09/16 06:55:50;;;;;;;8.67;4.17;;;23.50;99.90;;;;;;7293259;19;20694;-90
2023/09/16 06:58:20;;;;;;;12.38;3.97;;;24.80;99.90;;;;;;7293703;19;20185;-90
2023/09/16 07:00:48;;;;;;;7.72;3.35;;;25.90;99.90;;;;;;7295252;19;20173;-90
2023/09/16 07:03:20;;;;;;;7.15;3.35;;;26.50;99.90;;;;;;7293179;19;20194;-90
2023/09/16 07:05:49;;;;;;;7.50;3.47;;;26.90;99.90;;;;;;7293129;19;20200;-90
2023/09/16 07:08:19;;;;;;;7.25;3.45;;;27.60;99.90;;;;;;7291970;19;20206;-90
2023/09/16 07:10:49;;;;;;;8.07;3.55;;;28.50;99.90;;;;;;7294258;19;20206;-90
2023/09/16 07:13:26;;;;;;;7.35;3.90;;;29.10;99.90;;;;;;7295562;19;20173;-91
2023/09/16 07:15:59;;;;;;;7.07;3.88;;;29.40;99.90;;;;;;7293848;19;20197;-90
2023/09/16 07:18:25;;;;;;;9.38;3.90;;;30.20;99.90;;;;;;7293547;19;20200;-90
2023/09/16 07:20:54;;;;;;;8.18;4.13;;;30.40;99.90;;;;;;7292657;19;20185;-90
2023/09/16 07:23:22;;;;;;;9.52;3.75;;;31.20;99.90;;;;;;7291569;19;20622;-90
2023/09/16 07:25:59;;;;;;;9.63;3.50;;;31.80;99.90;;;;;;7292822;19;20185;-90
2023/09/16 07:28:28;;;;;;;7.75;3.85;;;32.70;99.90;;;;;;7290236;19;20197;-90
2023/09/16 07:30:57;;;;;;;6.45;3.40;;;33.80;99.90;;;;;;7293291;19;20189;-90
2023/09/16 07:33:48;;;;;;;9.27;3.50;;;34.40;99.10;;;;;;7315050;19;20193;-90
2023/09/16 07:36:17;;;;;;;6.90;3.30;;;34.90;97.00;;;;;;7190279;19;2004455;-90
2023/09/16 07:38:52;;;;;;;9.60;3.70;;;35.70;94.30;;;;;;7292660;19;20175;-90
2023/09/16 07:41:27;;;;;;;6.35;3.58;;;35.50;92.50;;;;;;7293090;19;20181;-90
2023/09/16 07:44:45;;;;;;;6.32;3.50;;;35.40;91.90;;;;;;7293834;19;20200;-90
2023/09/16 07:47:19;;;;;;;8.05;3.28;;;34.40;92.30;;;;;;7085163;19;2004587;-90
2023/09/16 07:49:51;;;;;;;7.72;3.53;;;33.70;93.60;;;;;;7293596;19;20233;-91
2023/09/16 07:52:23;;;;;;;6.57;3.10;;;33.40;94.10;;;;;;7290515;19;20180;-90
2023/09/16 07:54:57;;;;;;;5.93;3.35;;;33.30;93.70;;;;;;7291400;19;20198;-90
2023/09/16 07:57:23;;;;;;;8.23;3.53;;;32.70;94.70;;;;;;7293562;19;20242;-90
2023/09/16 08:02:55;;;;;;;7.63;3.67;;;30.90;97.20;;;;;;7189759;19;2004578;-90
2023/09/16 08:05:24;;;;;;;6.90;3.78;;;30.40;99.10;;;;;;7293414;19;20574;-90
2023/09/16 08:07:53;;;;;;;9.05;4.10;;;30.20;99.90;;;;;;7293180;19;20268;-90
2023/09/16 08:10:25;;;;;;;7.65;4.28;;;30.80;99.90;;;;;;7292854;19;20187;-90
2023/09/16 08:12:51;;;;;;;8.70;4.00;;;31.30;99.00;;;;;;7293306;19;20214;-91
2023/09/16 08:15:23;;;;;;;9.35;4.35;;;32.00;98.30;;;;;;7315493;19;20185;-90
2023/09/16 08:21:36;;;;;;;7.68;3.53;;;32.90;96.20;;;;;;7406442;19;20128;-91
2023/09/16 08:27:15;;;;;;;7.50;3.45;;;34.40;93.60;;;;;;7419986;19;20146;-90
2023/09/16 08:29:41;;;;;;;7.28;3.53;;;35.70;91.60;;;;;;7294809;19;20540;-90
2023/09/16 08:32:12;;;;;;;5.57;3.38;;;35.20;91.40;;;;;;7293421;19;20196;-90
2023/09/16 08:34:38;;;;;;;9.63;3.70;;;34.90;91.80;;;;;;7291844;19;20263;-90
2023/09/16 08:37:11;;;;;;;8.95;3.65;;;34.60;92.60;;;;;;7314925;19;20176;-90
2023/09/16 08:39:40;;;;;;;6.70;3.63;;;34.10;92.60;;;;;;7193654;19;2004538;-89
2023/09/16 08:42:28;;;;;;;7.30;3.53;;;35.10;92.20;;;;;;7292358;19;20184;-90
2023/09/16 08:45:05;;;;;;;9.23;3.85;;;36.60;90.90;;;;;;7291761;19;20177;-89
2023/09/16 08:47:48;;;;;;;6.82;3.53;;;37.30;87.80;;;;;;7294326;19;20224;-92
2023/09/16 08:50:22;;;;;;;6.65;3.75;;;36.20;85.70;;;;;;7190895;19;2004487;-89
2023/09/16 08:52:59;;;;;;;7.05;3.95;;;36.00;86.80;;;;;;7291090;19;20184;-89
2023/09/16 08:55:32;;;;;;;9.82;4.00;;;35.60;85.60;;;;;;7293775;19;20260;-89
2023/09/16 08:58:10;;;;;;;6.22;3.60;;;35.20;85.00;;;;;;7293631;19;20201;-89
2023/09/16 09:00:39;;;;;;;7.32;4.18;;;34.80;86.10;;;;;;7275249;19;20252;-89
2023/09/16 09:03:14;;;;;;;7.03;3.67;;;34.60;85.90;;;;;;7304845;19;20189;-89
2023/09/16 09:05:55;;;;;;;7.35;3.83;;;33.50;89.20;;;;;;7292168;19;20180;-89
2023/09/16 09:08:21;;;;;;;6.82;3.95;;;32.40;90.10;;;;;;7291120;19;20188;-90
2023/09/16 09:11:16;;;;;;;7.50;3.75;;;32.00;90.90;;;;;;7290949;19;20181;-89
2023/09/16 09:13:46;;;;;;;7.00;4.38;;;31.50;91.40;;;;;;7189075;19;2004527;-89
2023/09/16 09:16:21;;;;;;;7.53;4.05;;;30.40;93.00;;;;;;7292128;19;20188;-90
2023/09/16 09:18:53;;;;;;;6.07;3.97;;;29.60;95.20;;;;;;7293158;19;20184;-89
2023/09/16 09:22:04;;;;;;;7.50;4.07;;;29.10;96.30;;;;;;7291606;19;20248;-90
2023/09/16 09:24:30;;;;;;;7.45;4.43;;;28.30;97.20;;;;;;7189978;19;2004424;-90
2023/09/16 09:27:02;;;;;;;8.52;4.07;;;27.90;99.10;;;;;;7292322;19;20190;-90
2023/09/16 09:29:28;;;;;;;9.32;4.85;;;27.70;99.80;;;;;;7291357;19;20657;-89
2023/09/16 09:31:55;;;;;;;8.40;4.78;;;27.40;99.90;;;;;;7293899;19;20177;-91
2023/09/16 09:34:29;;;;;;;9.82;5.07;;;27.00;99.90;;;;;;7297693;19;20192;-88
2023/09/16 09:37:05;;;;;;;7.72;4.30;;;26.90;99.90;;;;;;7296930;19;20193;-90
2023/09/16 09:39:39;;;;;;;9.45;4.47;;;27.00;99.90;;;;;;7298912;19;20192;-89
2023/09/16 09:42:11;;;;;;;10.63;4.88;;;27.50;99.90;;;;;;7296493;19;20193;-88
2023/09/16 09:44:43;;;;;;;11.13;4.63;;;27.70;99.90;;;;;;7296832;19;20193;-89
2023/09/16 09:47:12;;;;;;;8.82;4.05;;;28.10;99.90;;;;;;7298496;19;20188;-89
2023/09/16 09:49:50;;;;;;;11.68;4.75;;;28.70;99.90;;;;;;7317136;19;20185;-90
2023/09/16 09:52:24;;;;;;;5.93;3.97;;;29.70;99.90;;;;;;7297426;19;20196;-90
2023/09/16 09:54:57;;;;;;;9.82;4.68;;;30.70;99.90;;;;;;7295310;19;20192;-89
2023/09/16 09:57:30;;;;;;;10.05;4.28;;;30.80;99.80;;;;;;7294390;19;25581;-89
2023/09/16 10:00:01;;;;;;;10.32;4.75;;;31.30;99.20;;;;;;7295319;19;20201;-88
2023/09/16 10:02:41;;;;;;;7.43;4.47;;;31.90;99.60;;;;;;7276460;19;20188;-89
2023/09/16 10:05:22;;;;;;;9.60;4.95;;;32.10;97.30;;;;;;7296732;19;20701;-89
2023/09/16 10:07:51;;;;;;;9.25;4.70;;;32.00;97.20;;;;;;7295643;19;20189;-89
2023/09/16 10:10:31;;;;;;;7.82;4.38;;;32.30;97.30;;;;;;7294850;19;20546;-90
2023/09/16 10:13:03;;;;;;;8.38;4.32;;;32.50;96.40;;;;;;7296235;19;20188;-90
2023/09/16 10:15:35;;;;;;;7.85;4.15;;;32.80;95.70;;;;;;7295801;19;20233;-90
2023/09/16 10:18:09;;;;;;;8.43;3.92;;;32.90;95.20;;;;;;7295884;19;20185;-89
2023/09/16 10:21:14;;;;;;;8.23;4.22;;;32.80;95.20;;;;;;7293276;19;20199;-90
2023/09/16 10:23:44;;;;;;;6.97;4.07;;;33.10;95.00;;;;;;7193688;19;2004250;-90
2023/09/16 10:26:15;;;;;;;6.10;3.80;;;32.80;94.70;;;;;;7296834;19;20536;-90
2023/09/16 10:28:49;;;;;;;6.75;3.95;;;32.60;95.50;;;;;;7295175;19;20260;-89
2023/09/16 10:31:33;;;;;;;9.93;4.10;;;33.00;95.50;;;;;;7295526;19;20188;-91
2023/09/16 10:34:11;;;;;;;8.38;3.95;;;33.70;95.90;;;;;;7294991;19;20616;-90
2023/09/16 10:36:52;;;;;;;7.65;4.30;;;34.10;94.10;;;;;;7193698;19;2004219;-89
2023/09/16 10:39:35;;;;;;;6.82;3.92;;;33.80;93.20;;;;;;7295260;19;20195;-89
2023/09/16 10:42:47;;;;;;;;;;;;;;;;;;;;;
2023/09/16 10:45:28;;;;;;;6.57;4.03;;;32.80;94.60;;;;;;7089529;19;2004478;-88
2023/09/16 10:48:19;;;;;;;7.55;3.95;;;32.30;95.20;;;;;;7296271;19;20196;-90
2023/09/16 10:51:39;;;;;;;9.25;4.07;;;32.30;96.10;;;;;;7193382;19;2004417;-90
2023/09/16 10:54:29;;;;;;;7.85;4.28;;;32.00;95.70;;;;;;7186821;19;2004171;-91
2023/09/16 11:00:07;;;;;;;9.05;4.00;;;32.40;95.80;;;;;;7192812;19;2004423;-90
2023/09/16 11:02:49;;;;;;;9.75;4.00;;;33.00;95.30;;;;;;7294400;19;20217;-89
2023/09/16 11:05:29;;;;;;;6.18;4.00;;;33.60;94.70;;;;;;7191960;19;2004463;-89
2023/09/16 11:11:52;;;;;;;8.18;3.97;;;34.50;94.00;;;;;;7186416;19;2004594;-89
2023/09/16 11:15:20;;;;;;;7.68;4.00;;;34.80;93.00;;;;;;7086013;19;2004597;-89
2023/09/16 11:18:15;;;;;;;6.55;4.00;;;34.50;93.30;;;;;;7189678;19;2004291;-88
2023/09/16 11:20:57;;;;;;;7.53;3.15;;;33.50;93.10;;;;;;7184892;19;2004539;-88
2023/09/16 11:23:34;;;;;;;6.93;3.58;;;33.70;93.80;;;;;;7292846;19;20241;-88
2023/09/16 11:36:50;;;;;;;7.60;3.88;;;32.80;95.20;;;;;;7085821;19;2004195;-89
2023/09/16 11:43:05;;;;;;;6.80;3.55;;;32.80;95.60;;;;;;7294571;19;20177;-89
2023/09/16 11:45:51;;;;;;;6.88;3.80;;;33.10;96.50;;;;;;7190640;19;2004373;-89
2023/09/16 11:48:56;;;;;;;8.55;3.95;;;33.30;95.10;;;;;;7291848;19;20563;-88
2023/09/16 11:51:53;;;;;;;;;;;;;;;;;;;;;
2023/09/16 11:54:47;;;;;;;5.32;3.40;;;33.00;95.70;;;;;;7167204;19;2004538;-89
2023/09/16 11:57:18;;;;;;;7.90;3.63;;;33.20;95.70;;;;;;7292427;19;20220;-89
2023/09/16 12:00:42;;;;;;;5.13;3.33;;;32.90;96.20;;;;;;7333107;19;20233;-89
2023/09/16 12:03:30;;;;;;;7.45;3.83;;;32.40;95.80;;;;;;7191199;19;2004489;-90
2023/09/16 12:06:17;;;;;;;;;;;;;;;;;;;;;
2023/09/16 12:09:33;;;;;;;8.18;3.67;;;31.80;97.30;;;;;;7194702;19;2004187;-89
2023/09/16 12:12:27;;;;;;;7.60;3.97;;;31.80;97.10;;;;;;7192478;19;2004573;-89
2023/09/16 12:15:17;;;;;;;6.78;3.83;;;31.80;97.60;;;;;;7271676;19;20220;-89
2023/09/16 12:18:46;;;;;;;8.57;3.88;;;31.30;98.30;;;;;;7315870;19;20207;-90
2023/09/16 12:22:04;;;;;;;7.63;4.00;;;30.90;98.60;;;;;;7087680;19;2004559;-89
2023/09/16 12:24:36;;;;;;;7.47;4.10;;;30.60;99.00;;;;;;7190356;19;2004364;-89
2023/09/16 12:27:12;;;;;;;7.88;4.00;;;30.20;99.90;;;;;;7293387;19;20684;-89
2023/09/16 12:30:10;;;;;;;6.70;4.40;;;29.80;99.90;;;;;;7189569;19;2004453;-90
2023/09/16 12:33:28;;;;;;;7.00;4.10;;;29.20;99.90;;;;;;7294310;19;20188;-89
2023/09/16 12:39:13;;;;;;;;;;;;;;;;;;;;;
2023/09/16 12:42:06;;;;;;;8.50;4.30;;;28.70;99.90;;;;;;7187130;19;2004421;-89
2023/09/16 12:44:40;;;;;;;7.70;4.65;;;28.70;99.90;;;;;;7291989;19;20213;-88
2023/09/16 12:50:59;;;;;;;10.35;4.55;;;29.20;99.90;;;;;;7339520;19;20217;-89
2023/09/16 12:53:33;;;;;;;6.70;4.38;;;29.10;99.90;;;;;;7293082;19;20255;-89
2023/09/16 12:56:17;;;;;;;9.75;4.65;;;28.90;99.90;;;;;;7269334;19;20880;-89
2023/09/16 12:59:02;;;;;;;6.88;4.13;;;29.00;99.90;;;;;;7289918;19;20185;-89
2023/09/16 13:02:27;;;;;;;8.55;4.68;;;29.30;99.90;;;;;;7276200;19;20210;-90
2023/09/16 13:05:36;;;;;;;6.47;4.20;;;29.60;99.90;;;;;;7186047;19;2004129;-88
2023/09/16 13:08:47;;;;;;;7.63;4.20;;;29.70;99.90;;;;;;7114394;19;2004622;-88
2023/09/16 13:18:44;;;;;;;6.43;4.10;;;29.60;99.90;;;;;;7078481;19;2004666;-88
2023/09/16 13:21:51;;;;;;;7.68;4.05;;;29.50;99.90;;;;;;7263527;19;20191;-90
2023/09/16 13:24:56;;;;;;;9.27;3.95;;;29.60;99.90;;;;;;7197356;19;2004370;-89
2023/09/16 13:27:34;;;;;;;8.05;3.75;;;29.60;99.90;;;;;;7191697;19;2004556;-88
2023/09/16 13:34:04;;;;;;;4.82;3.08;;;29.80;99.90;;;;;;7137403;19;2004618;-89
2023/09/16 13:36:57;;;;;;;6.85;3.90;;;30.00;99.90;;;;;;7298458;19;20599;-89
2023/09/16 13:39:45;;;;;;;7.45;3.67;;;29.90;99.90;;;;;;7194294;19;2004515;-89
2023/09/16 13:42:17;;;;;;;6.43;3.92;;;29.50;99.90;;;;;;7319217;19;20534;-90
2023/09/16 13:48:31;;;;;;;8.63;3.70;;;29.50;99.90;;;;;;7297848;19;20237;-89
2023/09/16 13:51:27;;;;;;;5.75;3.90;;;29.60;99.90;;;;;;7193296;19;2004432;-90
2023/09/16 13:54:02;;;;;;;6.95;3.97;;;29.50;99.90;;;;;;7192408;19;2004459;-90
2023/09/16 13:56:40;;;;;;;7.60;4.32;;;29.30;99.90;;;;;;7318286;19;20544;-89
2023/09/16 13:59:09;;;;;;;6.95;3.88;;;29.00;99.90;;;;;;7290311;19;20188;-89
2023/09/16 14:01:39;;;;;;;7.38;4.30;;;28.80;99.90;;;;;;7318861;19;20256;-88
2023/09/16 14:04:11;;;;;;;5.63;3.90;;;28.70;99.90;;;;;;7297635;19;20606;-89
2023/09/16 14:06:53;;;;;;;8.45;4.45;;;28.70;99.90;;;;;;7182499;19;2020354;-89
2023/09/16 14:09:42;;;;;;;8.63;4.60;;;28.30;99.90;;;;;;7297920;19;20218;-89
2023/09/16 14:12:11;;;;;;;8.73;4.82;;;28.20;99.90;;;;;;7194394;19;2004445;-89
2023/09/16 14:14:42;;;;;;;7.63;4.40;;;28.30;99.90;;;;;;7300171;19;20256;-89
2023/09/16 14:17:10;;;;;;;8.15;4.35;;;28.60;99.90;;;;;;7296271;19;20193;-89
2023/09/16 14:19:42;;;;;;;7.75;4.25;;;28.90;99.90;;;;;;7298296;19;20181;-89
2023/09/16 14:22:10;;;;;;;6.43;3.70;;;29.20;99.90;;;;;;7298404;19;20189;-91
2023/09/16 14:24:36;;;;;;;5.82;3.45;;;29.40;99.90;;;;;;7318592;19;20241;-90
2023/09/16 14:27:11;;;;;;;7.93;4.00;;;29.50;99.90;;;;;;7297881;19;20191;-89
2023/09/16 14:29:37;;;;;;;6.93;4.10;;;29.70;99.90;;;;;;7285812;19;20192;-90
2023/09/16 14:32:03;;;;;;;7.18;3.90;;;29.70;99.90;;;;;;7319680;19;20224;-90
2023/09/16 14:34:38;;;;;;;8.70;3.92;;;29.80;99.90;;;;;;7297365;19;20216;-89
2023/09/16 14:37:23;;;;;;;4.90;3.60;;;29.90;99.90;;;;;;7277711;19;20189;-90
2023/09/16 14:39:52;;;;;;;7.63;4.18;;;30.00;99.90;;;;;;7298286;19;20227;-89
2023/09/16 14:42:21;;;;;;;7.05;3.67;;;30.00;99.90;;;;;;7296866;19;20655;-90
2023/09/16 14:45:24;;;;;;;7.45;4.20;;;29.90;99.90;;;;;;7296949;19;20206;-91
2023/09/16 14:48:51;;;;;;;6.32;3.40;;;29.70;99.90;;;;;;7091811;19;2004540;-90
2023/09/16 14:51:38;;;;;;;;;;;;;;;;;;;;;
2023/09/16 14:54:30;;;;;;;7.28;3.55;;;29.30;99.90;;;;;;7281831;19;20193;-89
2023/09/16 14:57:08;;;;;;;7.70;4.10;;;29.20;99.90;;;;;;7296838;19;20192;-91
2023/09/16 15:02:55;;;;;;;7.32;3.90;;;29.60;99.90;;;;;;7272591;19;20185;-92